Airfield :
LOGIN :

Register | Disclaimer

   EN    FR    IT 

 










Legend :    VFR   Marginal VFR   IFR   Intensive IFR   Very Intensive IFR
Visi :
Ceiling :
>= 8 km
>= 3000ft
5 to 8 km
1000 to 3000 ft
1500m to 5 km
500 to 1000 ft
800 to 1500m
200 to 500 ft
< 800m
< 200 ft
Symbols :   Thunderstorms  Fog  Heavy snow  Heavy precipitations  Wind > 20 kt
SIGMETs :     Misc.  Thunderstorms  Icing  Turbulence  Mountain Waves  Volcanic Ashes







- Airport Elevation : 308 ft
- IATA code : ATH


LGAV - Eleftherios Venizelos Int.

CURRENT METAR :
  • 250650Z 02022KT CAVOK 28/18 Q1012 NOSIG

EXPIRED METARs :
  • 250620Z 02016KT 9999 FEW030 28/18 Q1012 NOSIG
  • 250520Z 01014KT 330V050 CAVOK 28/18 Q1012 NOSIG
  • 250450Z 01008KT CAVOK 27/18 Q1012 NOSIG
  • 250420Z VRB03KT CAVOK 27/17 Q1011 NOSIG

TAF TAF LGAV
Valid from the 25 at 06:00 until the 26 at 06:00 UTC


250500Z 2506/2606 01015KT 9999 FEW025
BECMG 2508/2510 01015G25KT
No reported NOTAMs for that airfield.



MET'MAP, your aeronautical weather chart ! - Copyright ORBIFLY December 2007 - Disclaimer

ORBIFLY MET'MAP TEAM :

Programming & Development : Alexandra Zaïnal
Concept & Development : Baudouin d'Aumeries
Co-Development & Prog : Marc-Olivier Méhu
Technical & hardware support : Manuel Goepfert

Contact : metmap@orbifly.com




SOURCES & CREDITS :

   NOAA